sensor_id;sensor_type;location;lat;lon;timestamp;P1;durP1;ratioP1;P2;durP2;ratioP2
8225;SDS011;4154;48.810;9.012;2023-09-08T00:02:10;7.00;;;6.35;;
8225;SDS011;4154;48.810;9.012;2023-09-08T00:04:36;6.93;;;6.32;;
8225;SDS011;4154;48.810;9.012;2023-09-08T00:07:02;7.35;;;6.22;;
8225;SDS011;4154;48.810;9.012;2023-09-08T00:09:29;6.25;;;5.75;;
8225;SDS011;4154;48.810;9.012;2023-09-08T00:11:55;7.00;;;6.30;;
8225;SDS011;4154;48.810;9.012;2023-09-08T00:14:21;6.85;;;6.25;;
8225;SDS011;4154;48.810;9.012;2023-09-08T00:16:47;6.93;;;6.32;;
8225;SDS011;4154;48.810;9.012;2023-09-08T00:19:13;6.65;;;6.05;;
8225;SDS011;4154;48.810;9.012;2023-09-08T00:21:39;6.55;;;6.05;;
8225;SDS011;4154;48.810;9.012;2023-09-08T00:24:08;6.72;;;6.13;;
8225;SDS011;4154;48.810;9.012;2023-09-08T00:26:34;7.22;;;6.53;;
8225;SDS011;4154;48.810;9.012;2023-09-08T00:28:59;7.25;;;6.60;;
8225;SDS011;4154;48.810;9.012;2023-09-08T00:31:25;6.78;;;6.07;;
8225;SDS011;4154;48.810;9.012;2023-09-08T00:33:51;9.48;;;6.72;;
8225;SDS011;4154;48.810;9.012;2023-09-08T00:36:17;7.10;;;6.50;;
8225;SDS011;4154;48.810;9.012;2023-09-08T00:38:44;7.97;;;7.00;;
8225;SDS011;4154;48.810;9.012;2023-09-08T00:41:10;7.57;;;6.82;;
8225;SDS011;4154;48.810;9.012;2023-09-08T00:43:36;7.35;;;6.68;;
8225;SDS011;4154;48.810;9.012;2023-09-08T00:46:02;6.93;;;6.32;;
8225;SDS011;4154;48.810;9.012;2023-09-08T00:48:28;7.03;;;6.35;;
8225;SDS011;4154;48.810;9.012;2023-09-08T00:50:55;8.52;;;6.47;;
8225;SDS011;4154;48.810;9.012;2023-09-08T00:53:22;6.55;;;5.97;;
8225;SDS011;4154;48.810;9.012;2023-09-08T00:55:48;7.13;;;6.30;;
8225;SDS011;4154;48.810;9.012;2023-09-08T00:58:15;7.03;;;6.38;;
8225;SDS011;4154;48.810;9.012;2023-09-08T01:00:41;7.45;;;6.22;;
8225;SDS011;4154;48.810;9.012;2023-09-08T01:03:08;6.90;;;6.18;;
8225;SDS011;4154;48.810;9.012;2023-09-08T01:05:34;7.38;;;6.10;;
8225;SDS011;4154;48.810;9.012;2023-09-08T01:08:00;7.05;;;6.13;;
8225;SDS011;4154;48.810;9.012;2023-09-08T01:10:26;5.93;;;5.43;;
8225;SDS011;4154;48.810;9.012;2023-09-08T01:12:53;8.85;;;6.40;;
8225;SDS011;4154;48.810;9.012;2023-09-08T01:15:19;6.53;;;5.88;;
8225;SDS011;4154;48.810;9.012;2023-09-08T01:17:45;6.50;;;5.82;;
8225;SDS011;4154;48.810;9.012;2023-09-08T01:25:35;6.63;;;5.95;;
8225;SDS011;4154;48.810;9.012;2023-09-08T01:28:17;6.05;;;5.50;;
8225;SDS011;4154;48.810;9.012;2023-09-08T01:30:45;6.38;;;5.70;;
8225;SDS011;4154;48.810;9.012;2023-09-08T01:33:12;9.48;;;6.53;;
8225;SDS011;4154;48.810;9.012;2023-09-08T01:35:38;8.27;;;6.40;;
8225;SDS011;4154;48.810;9.012;2023-09-08T01:38:04;7.03;;;6.43;;
8225;SDS011;4154;48.810;9.012;2023-09-08T01:40:30;6.60;;;6.00;;
8225;SDS011;4154;48.810;9.012;2023-09-08T01:42:56;7.72;;;7.05;;
8225;SDS011;4154;48.810;9.012;2023-09-08T01:45:22;7.90;;;6.80;;
8225;SDS011;4154;48.810;9.012;2023-09-08T01:47:48;7.65;;;6.85;;
8225;SDS011;4154;48.810;9.012;2023-09-08T01:50:14;7.45;;;6.75;;
8225;SDS011;4154;48.810;9.012;2023-09-08T01:52:46;7.20;;;6.50;;
8225;SDS011;4154;48.810;9.012;2023-09-08T01:55:12;7.35;;;6.65;;
8225;SDS011;4154;48.810;9.012;2023-09-08T01:57:39;7.07;;;6.45;;
8225;SDS011;4154;48.810;9.012;2023-09-08T02:00:05;6.72;;;6.13;;
8225;SDS011;4154;48.810;9.012;2023-09-08T02:02:31;6.43;;;5.82;;
8225;SDS011;4154;48.810;9.012;2023-09-08T02:04:57;6.47;;;5.88;;
8225;SDS011;4154;48.810;9.012;2023-09-08T02:07:23;6.25;;;5.70;;
8225;SDS011;4154;48.810;9.012;2023-09-08T02:09:49;7.78;;;6.18;;
8225;SDS011;4154;48.810;9.012;2023-09-08T02:12:15;6.55;;;5.95;;
8225;SDS011;4154;48.810;9.012;2023-09-08T02:14:41;6.32;;;5.78;;
8225;SDS011;4154;48.810;9.012;2023-09-08T02:17:08;6.55;;;5.95;;
8225;SDS011;4154;48.810;9.012;2023-09-08T02:19:34;7.45;;;5.97;;
8225;SDS011;4154;48.810;9.012;2023-09-08T02:22:00;6.82;;;6.25;;
8225;SDS011;4154;48.810;9.012;2023-09-08T02:24:26;6.50;;;5.90;;
8225;SDS011;4154;48.810;9.012;2023-09-08T02:26:52;6.60;;;6.00;;
8225;SDS011;4154;48.810;9.012;2023-09-08T02:29:18;6.55;;;5.95;;
8225;SDS011;4154;48.810;9.012;2023-09-08T02:31:44;6.78;;;6.18;;
8225;SDS011;4154;48.810;9.012;2023-09-08T02:34:11;6.70;;;6.07;;
8225;SDS011;4154;48.810;9.012;2023-09-08T02:36:37;6.00;;;5.50;;
8225;SDS011;4154;48.810;9.012;2023-09-08T02:39:03;6.95;;;6.35;;
8225;SDS011;4154;48.810;9.012;2023-09-08T02:41:29;7.38;;;6.68;;
8225;SDS011;4154;48.810;9.012;2023-09-08T02:43:56;7.10;;;6.40;;
8225;SDS011;4154;48.810;9.012;2023-09-08T02:46:22;7.47;;;6.78;;
8225;SDS011;4154;48.810;9.012;2023-09-08T02:48:48;8.30;;;7.00;;
8225;SDS011;4154;48.810;9.012;2023-09-08T02:51:14;9.43;;;6.78;;
8225;SDS011;4154;48.810;9.012;2023-09-08T02:53:41;7.10;;;6.45;;
8225;SDS011;4154;48.810;9.012;2023-09-08T02:56:06;7.13;;;6.15;;
8225;SDS011;4154;48.810;9.012;2023-09-08T02:58:34;6.75;;;6.15;;
8225;SDS011;4154;48.810;9.012;2023-09-08T03:01:14;7.25;;;6.53;;
8225;SDS011;4154;48.810;9.012;2023-09-08T03:03:45;6.68;;;6.07;;
8225;SDS011;4154;48.810;9.012;2023-09-08T03:06:13;6.55;;;5.95;;
8225;SDS011;4154;48.810;9.012;2023-09-08T03:08:40;6.80;;;6.10;;
8225;SDS011;4154;48.810;9.012;2023-09-08T03:11:07;7.30;;;6.60;;
8225;SDS011;4154;48.810;9.012;2023-09-08T03:13:33;7.03;;;6.32;;
8225;SDS011;4154;48.810;9.012;2023-09-08T03:16:04;7.10;;;6.47;;
8225;SDS011;4154;48.810;9.012;2023-09-08T03:18:32;6.47;;;5.88;;
8225;SDS011;4154;48.810;9.012;2023-09-08T03:20:59;7.15;;;6.40;;
8225;SDS011;4154;48.810;9.012;2023-09-08T03:23:34;6.82;;;6.22;;
8225;SDS011;4154;48.810;9.012;2023-09-08T03:26:04;8.52;;;6.32;;
8225;SDS011;4154;48.810;9.012;2023-09-08T03:28:31;7.20;;;6.57;;
8225;SDS011;4154;48.810;9.012;2023-09-08T03:31:00;7.45;;;6.63;;
8225;SDS011;4154;48.810;9.012;2023-09-08T03:33:29;6.63;;;6.03;;
8225;SDS011;4154;48.810;9.012;2023-09-08T03:35:55;7.53;;;6.60;;
8225;SDS011;4154;48.810;9.012;2023-09-08T03:38:22;7.38;;;6.65;;
8225;SDS011;4154;48.810;9.012;2023-09-08T03:40:48;7.60;;;6.57;;
8225;SDS011;4154;48.810;9.012;2023-09-08T03:43:14;7.20;;;6.47;;
8225;SDS011;4154;48.810;9.012;2023-09-08T03:45:40;7.10;;;6.43;;
8225;SDS011;4154;48.810;9.012;2023-09-08T03:48:06;7.68;;;6.80;;
8225;SDS011;4154;48.810;9.012;2023-09-08T03:50:33;7.40;;;6.70;;
8225;SDS011;4154;48.810;9.012;2023-09-08T03:52:59;7.30;;;6.68;;
8225;SDS011;4154;48.810;9.012;2023-09-08T03:55:25;7.93;;;6.72;;
8225;SDS011;4154;48.810;9.012;2023-09-08T03:57:51;7.78;;;6.70;;
8225;SDS011;4154;48.810;9.012;2023-09-08T04:00:17;7.70;;;6.53;;
8225;SDS011;4154;48.810;9.012;2023-09-08T04:02:46;6.43;;;5.93;;
8225;SDS011;4154;48.810;9.012;2023-09-08T04:05:13;7.80;;;7.00;;
8225;SDS011;4154;48.810;9.012;2023-09-08T04:07:39;6.40;;;5.80;;
8225;SDS011;4154;48.810;9.012;2023-09-08T04:10:05;7.30;;;6.60;;
8225;SDS011;4154;48.810;9.012;2023-09-08T04:12:32;6.97;;;6.13;;
8225;SDS011;4154;48.810;9.012;2023-09-08T04:14:58;6.45;;;5.90;;
8225;SDS011;4154;48.810;9.012;2023-09-08T04:17:24;6.45;;;5.85;;
8225;SDS011;4154;48.810;9.012;2023-09-08T04:19:50;6.80;;;6.20;;
8225;SDS011;4154;48.810;9.012;2023-09-08T04:22:16;6.63;;;6.07;;
8225;SDS011;4154;48.810;9.012;2023-09-08T04:24:41;6.80;;;6.10;;
8225;SDS011;4154;48.810;9.012;2023-09-08T04:27:08;6.47;;;5.88;;
8225;SDS011;4154;48.810;9.012;2023-09-08T04:29:35;6.93;;;6.25;;
8225;SDS011;4154;48.810;9.012;2023-09-08T04:32:01;6.78;;;6.18;;
8225;SDS011;4154;48.810;9.012;2023-09-08T04:34:34;6.88;;;6.25;;
8225;SDS011;4154;48.810;9.012;2023-09-08T04:37:04;6.85;;;6.15;;
8225;SDS011;4154;48.810;9.012;2023-09-08T04:39:31;6.50;;;5.90;;
8225;SDS011;4154;48.810;9.012;2023-09-08T04:41:57;6.80;;;6.10;;
8225;SDS011;4154;48.810;9.012;2023-09-08T04:44:24;7.07;;;6.38;;
8225;SDS011;4154;48.810;9.012;2023-09-08T04:46:50;6.90;;;6.30;;
8225;SDS011;4154;48.810;9.012;2023-09-08T04:49:17;6.72;;;6.13;;
8225;SDS011;4154;48.810;9.012;2023-09-08T04:51:43;7.05;;;6.35;;
8225;SDS011;4154;48.810;9.012;2023-09-08T04:54:09;6.90;;;6.20;;
8225;SDS011;4154;48.810;9.012;2023-09-08T04:56:36;8.23;;;6.95;;
8225;SDS011;4154;48.810;9.012;2023-09-08T04:59:04;7.50;;;6.80;;
8225;SDS011;4154;48.810;9.012;2023-09-08T05:01:29;7.47;;;6.78;;
8225;SDS011;4154;48.810;9.012;2023-09-08T05:03:57;7.70;;;7.00;;
8225;SDS011;4154;48.810;9.012;2023-09-08T05:06:24;7.35;;;6.68;;
8225;SDS011;4154;48.810;9.012;2023-09-08T05:08:50;7.47;;;6.68;;
8225;SDS011;4154;48.810;9.012;2023-09-08T05:11:17;7.45;;;6.32;;
8225;SDS011;4154;48.810;9.012;2023-09-08T05:13:44;6.68;;;6.07;;
8225;SDS011;4154;48.810;9.012;2023-09-08T05:16:11;7.32;;;6.72;;
8225;SDS011;4154;48.810;9.012;2023-09-08T05:18:38;7.07;;;6.47;;
8225;SDS011;4154;48.810;9.012;2023-09-08T05:21:05;7.13;;;6.53;;
8225;SDS011;4154;48.810;9.012;2023-09-08T05:23:31;9.50;;;6.90;;
8225;SDS011;4154;48.810;9.012;2023-09-08T05:25:57;7.35;;;6.75;;
8225;SDS011;4154;48.810;9.012;2023-09-08T05:28:23;8.25;;;6.90;;
8225;SDS011;4154;48.810;9.012;2023-09-08T05:30:52;7.28;;;6.60;;
8225;SDS011;4154;48.810;9.012;2023-09-08T05:33:19;7.80;;;7.10;;
8225;SDS011;4154;48.810;9.012;2023-09-08T05:35:44;7.35;;;6.75;;
8225;SDS011;4154;48.810;9.012;2023-09-08T05:38:11;8.80;;;7.13;;
8225;SDS011;4154;48.810;9.012;2023-09-08T05:40:37;7.97;;;7.20;;
8225;SDS011;4154;48.810;9.012;2023-09-08T05:43:03;7.90;;;7.20;;
8225;SDS011;4154;48.810;9.012;2023-09-08T05:45:31;7.60;;;6.90;;
8225;SDS011;4154;48.810;9.012;2023-09-08T05:47:57;8.07;;;7.15;;
8225;SDS011;4154;48.810;9.012;2023-09-08T05:50:23;8.10;;;7.30;;
8225;SDS011;4154;48.810;9.012;2023-09-08T05:52:49;8.88;;;7.20;;
8225;SDS011;4154;48.810;9.012;2023-09-08T05:55:16;9.00;;;7.40;;
8225;SDS011;4154;48.810;9.012;2023-09-08T05:57:42;8.63;;;7.40;;
8225;SDS011;4154;48.810;9.012;2023-09-08T06:00:08;7.60;;;6.95;;
8225;SDS011;4154;48.810;9.012;2023-09-08T06:02:34;7.70;;;6.90;;
8225;SDS011;4154;48.810;9.012;2023-09-08T06:05:01;8.57;;;6.82;;
8225;SDS011;4154;48.810;9.012;2023-09-08T06:07:27;8.20;;;7.40;;
8225;SDS011;4154;48.810;9.012;2023-09-08T06:09:53;8.60;;;7.78;;
8225;SDS011;4154;48.810;9.012;2023-09-08T06:12:19;8.70;;;7.72;;
8225;SDS011;4154;48.810;9.012;2023-09-08T06:14:45;8.93;;;7.18;;
8225;SDS011;4154;48.810;9.012;2023-09-08T06:17:11;8.63;;;7.55;;
8225;SDS011;4154;48.810;9.012;2023-09-08T06:19:37;10.95;;;7.70;;
8225;SDS011;4154;48.810;9.012;2023-09-08T06:22:03;11.15;;;7.53;;
8225;SDS011;4154;48.810;9.012;2023-09-08T06:24:28;8.50;;;7.60;;
8225;SDS011;4154;48.810;9.012;2023-09-08T06:26:54;8.60;;;7.47;;
8225;SDS011;4154;48.810;9.012;2023-09-08T06:29:20;8.05;;;7.25;;
8225;SDS011;4154;48.810;9.012;2023-09-08T06:31:46;8.98;;;7.78;;
8225;SDS011;4154;48.810;9.012;2023-09-08T06:34:12;9.05;;;7.38;;
8225;SDS011;4154;48.810;9.012;2023-09-08T06:36:37;8.35;;;7.18;;
8225;SDS011;4154;48.810;9.012;2023-09-08T06:39:03;9.80;;;7.93;;
8225;SDS011;4154;48.810;9.012;2023-09-08T06:41:29;8.98;;;8.07;;
8225;SDS011;4154;48.810;9.012;2023-09-08T06:43:55;8.68;;;7.88;;
8225;SDS011;4154;48.810;9.012;2023-09-08T06:46:21;9.35;;;7.95;;
8225;SDS011;4154;48.810;9.012;2023-09-08T06:48:47;7.75;;;7.05;;
8225;SDS011;4154;48.810;9.012;2023-09-08T06:51:13;8.45;;;7.65;;
8225;SDS011;4154;48.810;9.012;2023-09-08T06:53:42;8.30;;;7.50;;
8225;SDS011;4154;48.810;9.012;2023-09-08T06:56:09;8.27;;;7.45;;
8225;SDS011;4154;48.810;9.012;2023-09-08T06:58:35;7.82;;;7.03;;
8225;SDS011;4154;48.810;9.012;2023-09-08T07:01:01;8.52;;;7.05;;
8225;SDS011;4154;48.810;9.012;2023-09-08T07:03:27;8.05;;;7.28;;
8225;SDS011;4154;48.810;9.012;2023-09-08T07:05:53;9.52;;;7.78;;
8225;SDS011;4154;48.810;9.012;2023-09-08T07:08:19;8.80;;;7.50;;
8225;SDS011;4154;48.810;9.012;2023-09-08T07:10:51;8.85;;;7.95;;
8225;SDS011;4154;48.810;9.012;2023-09-08T07:13:17;8.80;;;7.90;;
8225;SDS011;4154;48.810;9.012;2023-09-08T07:15:43;7.93;;;7.10;;
8225;SDS011;4154;48.810;9.012;2023-09-08T07:18:09;7.93;;;7.25;;
8225;SDS011;4154;48.810;9.012;2023-09-08T07:20:36;8.35;;;7.55;;
8225;SDS011;4154;48.810;9.012;2023-09-08T07:23:02;8.70;;;8.00;;
8225;SDS011;4154;48.810;9.012;2023-09-08T07:25:28;8.43;;;7.63;;
8225;SDS011;4154;48.810;9.012;2023-09-08T07:27:54;8.23;;;7.45;;
8225;SDS011;4154;48.810;9.012;2023-09-08T07:30:20;8.02;;;7.30;;
8225;SDS011;4154;48.810;9.012;2023-09-08T07:32:46;8.25;;;7.50;;
8225;SDS011;4154;48.810;9.012;2023-09-08T07:35:12;8.32;;;7.40;;
8225;SDS011;4154;48.810;9.012;2023-09-08T07:37:42;8.00;;;7.20;;
8225;SDS011;4154;48.810;9.012;2023-09-08T07:40:11;8.02;;;7.22;;
8225;SDS011;4154;48.810;9.012;2023-09-08T07:42:37;8.52;;;7.63;;
8225;SDS011;4154;48.810;9.012;2023-09-08T07:45:03;8.20;;;7.25;;
8225;SDS011;4154;48.810;9.012;2023-09-08T07:47:29;8.52;;;7.75;;
8225;SDS011;4154;48.810;9.012;2023-09-08T07:50:15;9.50;;;7.30;;
8225;SDS011;4154;48.810;9.012;2023-09-08T07:52:47;8.38;;;7.57;;
8225;SDS011;4154;48.810;9.012;2023-09-08T07:55:14;7.82;;;7.13;;
8225;SDS011;4154;48.810;9.012;2023-09-08T07:57:41;7.68;;;6.97;;
8225;SDS011;4154;48.810;9.012;2023-09-08T08:00:09;8.20;;;7.40;;
8225;SDS011;4154;48.810;9.012;2023-09-08T08:02:36;8.02;;;7.22;;
8225;SDS011;4154;48.810;9.012;2023-09-08T08:05:07;8.63;;;7.03;;
8225;SDS011;4154;48.810;9.012;2023-09-08T08:07:33;8.85;;;8.05;;
8225;SDS011;4154;48.810;9.012;2023-09-08T08:09:58;9.38;;;7.90;;
8225;SDS011;4154;48.810;9.012;2023-09-08T08:12:24;8.57;;;7.53;;
8225;SDS011;4154;48.810;9.012;2023-09-08T08:14:50;8.07;;;7.28;;
8225;SDS011;4154;48.810;9.012;2023-09-08T08:17:16;8.07;;;7.38;;
8225;SDS011;4154;48.810;9.012;2023-09-08T08:19:44;11.45;;;7.63;;
8225;SDS011;4154;48.810;9.012;2023-09-08T08:22:10;8.60;;;7.78;;
8225;SDS011;4154;48.810;9.012;2023-09-08T08:24:36;8.90;;;8.07;;
8225;SDS011;4154;48.810;9.012;2023-09-08T08:27:02;8.80;;;7.90;;
8225;SDS011;4154;48.810;9.012;2023-09-08T08:29:28;9.07;;;7.95;;
8225;SDS011;4154;48.810;9.012;2023-09-08T08:31:54;11.18;;;7.82;;
8225;SDS011;4154;48.810;9.012;2023-09-08T08:34:20;9.40;;;8.40;;
8225;SDS011;4154;48.810;9.012;2023-09-08T08:36:46;8.82;;;7.93;;
8225;SDS011;4154;48.810;9.012;2023-09-08T08:39:12;8.38;;;7.65;;
8225;SDS011;4154;48.810;9.012;2023-09-08T08:41:38;9.10;;;7.95;;
8225;SDS011;4154;48.810;9.012;2023-09-08T08:44:06;8.50;;;7.60;;
8225;SDS011;4154;48.810;9.012;2023-09-08T08:46:33;9.40;;;7.78;;
8225;SDS011;4154;48.810;9.012;2023-09-08T08:49:02;9.70;;;8.10;;
8225;SDS011;4154;48.810;9.012;2023-09-08T08:51:32;8.57;;;7.72;;
8225;SDS011;4154;48.810;9.012;2023-09-08T08:54:03;8.77;;;7.88;;
8225;SDS011;4154;48.810;9.012;2023-09-08T08:56:30;10.02;;;8.45;;
8225;SDS011;4154;48.810;9.012;2023-09-08T08:58:57;8.23;;;7.28;;
8225;SDS011;4154;48.810;9.012;2023-09-08T09:01:25;8.75;;;7.95;;
8225;SDS011;4154;48.810;9.012;2023-09-08T09:03:52;9.10;;;8.30;;
8225;SDS011;4154;48.810;9.012;2023-09-08T09:06:18;8.18;;;7.47;;
8225;SDS011;4154;48.810;9.012;2023-09-08T09:08:44;7.97;;;7.28;;
8225;SDS011;4154;48.810;9.012;2023-09-08T09:11:11;7.72;;;7.03;;
8225;SDS011;4154;48.810;9.012;2023-09-08T09:13:38;8.18;;;7.40;;
8225;SDS011;4154;48.810;9.012;2023-09-08T09:16:04;10.30;;;8.05;;
8225;SDS011;4154;48.810;9.012;2023-09-08T09:18:39;8.63;;;7.70;;
8225;SDS011;4154;48.810;9.012;2023-09-08T09:21:23;7.57;;;6.97;;
8225;SDS011;4154;48.810;9.012;2023-09-08T09:23:50;7.57;;;6.88;;
8225;SDS011;4154;48.810;9.012;2023-09-08T09:26:34;7.60;;;6.88;;
8225;SDS011;4154;48.810;9.012;2023-09-08T09:29:01;7.90;;;7.15;;
8225;SDS011;4154;48.810;9.012;2023-09-08T09:31:27;8.02;;;7.32;;
8225;SDS011;4154;48.810;9.012;2023-09-08T09:34:01;7.45;;;6.75;;
8225;SDS011;4154;48.810;9.012;2023-09-08T09:36:31;8.65;;;7.45;;
8225;SDS011;4154;48.810;9.012;2023-09-08T09:38:58;8.05;;;7.00;;
8225;SDS011;4154;48.810;9.012;2023-09-08T09:41:26;8.00;;;7.20;;
8225;SDS011;4154;48.810;9.012;2023-09-08T09:43:55;7.78;;;7.03;;
8225;SDS011;4154;48.810;9.012;2023-09-08T09:46:21;8.45;;;7.50;;
8225;SDS011;4154;48.810;9.012;2023-09-08T09:48:50;7.88;;;7.18;;
8225;SDS011;4154;48.810;9.012;2023-09-08T09:51:19;9.13;;;7.10;;
8225;SDS011;4154;48.810;9.012;2023-09-08T09:53:45;8.63;;;7.70;;
8225;SDS011;4154;48.810;9.012;2023-09-08T09:56:13;7.63;;;6.93;;
8225;SDS011;4154;48.810;9.012;2023-09-08T09:58:40;8.13;;;7.32;;
8225;SDS011;4154;48.810;9.012;2023-09-08T10:01:08;8.15;;;7.45;;
8225;SDS011;4154;48.810;9.012;2023-09-08T10:03:37;10.13;;;7.50;;
8225;SDS011;4154;48.810;9.012;2023-09-08T10:06:05;7.88;;;7.28;;
8225;SDS011;4154;48.810;9.012;2023-09-08T10:08:31;7.75;;;7.05;;
8225;SDS011;4154;48.810;9.012;2023-09-08T10:11:05;7.38;;;6.78;;
8225;SDS011;4154;48.810;9.012;2023-09-08T10:13:33;7.22;;;6.63;;
8225;SDS011;4154;48.810;9.012;2023-09-08T10:16:11;9.57;;;7.05;;
8225;SDS011;4154;48.810;9.012;2023-09-08T10:18:41;7.53;;;6.85;;
8225;SDS011;4154;48.810;9.012;2023-09-08T10:21:12;9.48;;;7.55;;
8225;SDS011;4154;48.810;9.012;2023-09-08T10:23:42;7.60;;;6.80;;
8225;SDS011;4154;48.810;9.012;2023-09-08T10:26:19;8.75;;;7.85;;
8225;SDS011;4154;48.810;9.012;2023-09-08T10:28:51;7.90;;;7.13;;
8225;SDS011;4154;48.810;9.012;2023-09-08T10:31:23;8.15;;;7.38;;
8225;SDS011;4154;48.810;9.012;2023-09-08T10:33:52;8.55;;;7.85;;
8225;SDS011;4154;48.810;9.012;2023-09-08T10:36:21;8.05;;;7.25;;
8225;SDS011;4154;48.810;9.012;2023-09-08T10:38:54;7.57;;;6.90;;
8225;SDS011;4154;48.810;9.012;2023-09-08T10:45:13;7.40;;;6.72;;
8225;SDS011;4154;48.810;9.012;2023-09-08T10:50:18;8.20;;;7.40;;
8225;SDS011;4154;48.810;9.012;2023-09-08T10:53:03;7.50;;;6.78;;
8225;SDS011;4154;48.810;9.012;2023-09-08T10:55:35;7.55;;;6.60;;
8225;SDS011;4154;48.810;9.012;2023-09-08T10:58:29;7.45;;;6.75;;
8225;SDS011;4154;48.810;9.012;2023-09-08T11:01:04;8.73;;;7.82;;
8225;SDS011;4154;48.810;9.012;2023-09-08T11:06:02;7.45;;;6.75;;
8225;SDS011;4154;48.810;9.012;2023-09-08T11:08:29;7.63;;;6.88;;
8225;SDS011;4154;48.810;9.012;2023-09-08T11:10:56;8.20;;;7.50;;
8225;SDS011;4154;48.810;9.012;2023-09-08T11:13:21;7.90;;;7.10;;
8225;SDS011;4154;48.810;9.012;2023-09-08T11:15:51;7.97;;;7.28;;
8225;SDS011;4154;48.810;9.012;2023-09-08T11:18:25;7.93;;;7.13;;
8225;SDS011;4154;48.810;9.012;2023-09-08T11:20:55;7.85;;;7.05;;
8225;SDS011;4154;48.810;9.012;2023-09-08T11:23:22;8.77;;;7.88;;
8225;SDS011;4154;48.810;9.012;2023-09-08T11:25:49;7.68;;;7.07;;
8225;SDS011;4154;48.810;9.012;2023-09-08T11:28:17;8.48;;;7.10;;
8225;SDS011;4154;48.810;9.012;2023-09-08T11:30:46;8.93;;;7.32;;
8225;SDS011;4154;48.810;9.012;2023-09-08T11:33:16;7.85;;;6.90;;
8225;SDS011;4154;48.810;9.012;2023-09-08T11:35:46;7.60;;;6.65;;
8225;SDS011;4154;48.810;9.012;2023-09-08T11:38:13;7.70;;;7.07;;
8225;SDS011;4154;48.810;9.012;2023-09-08T11:40:39;8.68;;;6.70;;
8225;SDS011;4154;48.810;9.012;2023-09-08T11:43:06;7.60;;;6.90;;
8225;SDS011;4154;48.810;9.012;2023-09-08T11:45:36;7.47;;;6.78;;
8225;SDS011;4154;48.810;9.012;2023-09-08T11:48:05;9.05;;;7.05;;
8225;SDS011;4154;48.810;9.012;2023-09-08T11:50:31;9.80;;;7.20;;
8225;SDS011;4154;48.810;9.012;2023-09-08T11:52:57;7.78;;;6.97;;
8225;SDS011;4154;48.810;9.012;2023-09-08T11:55:24;7.40;;;6.70;;
8225;SDS011;4154;48.810;9.012;2023-09-08T11:57:54;7.78;;;6.95;;
8225;SDS011;4154;48.810;9.012;2023-09-08T12:00:26;10.18;;;7.30;;
8225;SDS011;4154;48.810;9.012;2023-09-08T12:02:53;7.50;;;6.80;;
8225;SDS011;4154;48.810;9.012;2023-09-08T12:05:22;7.70;;;7.00;;
8225;SDS011;4154;48.810;9.012;2023-09-08T12:07:52;7.38;;;6.57;;
8225;SDS011;4154;48.810;9.012;2023-09-08T12:10:23;7.90;;;6.93;;
8225;SDS011;4154;48.810;9.012;2023-09-08T12:12:51;9.10;;;7.25;;
8225;SDS011;4154;48.810;9.012;2023-09-08T12:18:06;7.88;;;6.75;;
8225;SDS011;4154;48.810;9.012;2023-09-08T12:20:37;7.18;;;6.57;;
8225;SDS011;4154;48.810;9.012;2023-09-08T12:23:05;7.65;;;6.97;;
8225;SDS011;4154;48.810;9.012;2023-09-08T12:26:11;12.25;;;6.88;;
8225;SDS011;4154;48.810;9.012;2023-09-08T12:28:37;7.07;;;6.50;;
8225;SDS011;4154;48.810;9.012;2023-09-08T12:31:03;7.15;;;6.55;;
8225;SDS011;4154;48.810;9.012;2023-09-08T12:33:30;10.73;;;7.03;;
8225;SDS011;4154;48.810;9.012;2023-09-08T12:35:55;7.72;;;6.95;;
8225;SDS011;4154;48.810;9.012;2023-09-08T12:38:21;7.78;;;6.75;;
8225;SDS011;4154;48.810;9.012;2023-09-08T12:40:48;8.75;;;6.78;;
8225;SDS011;4154;48.810;9.012;2023-09-08T12:43:14;9.57;;;7.00;;
8225;SDS011;4154;48.810;9.012;2023-09-08T12:45:40;10.98;;;7.00;;
8225;SDS011;4154;48.810;9.012;2023-09-08T12:48:06;7.95;;;7.25;;
8225;SDS011;4154;48.810;9.012;2023-09-08T12:50:32;7.20;;;6.50;;
8225;SDS011;4154;48.810;9.012;2023-09-08T12:52:58;7.40;;;6.80;;
8225;SDS011;4154;48.810;9.012;2023-09-08T12:55:24;6.95;;;6.35;;
8225;SDS011;4154;48.810;9.012;2023-09-08T12:57:50;7.30;;;6.60;;
8225;SDS011;4154;48.810;9.012;2023-09-08T13:00:19;7.15;;;6.45;;
8225;SDS011;4154;48.810;9.012;2023-09-08T13:02:48;7.30;;;6.55;;
8225;SDS011;4154;48.810;9.012;2023-09-08T13:05:14;6.82;;;6.22;;
8225;SDS011;4154;48.810;9.012;2023-09-08T13:07:40;7.53;;;6.65;;
8225;SDS011;4154;48.810;9.012;2023-09-08T13:10:06;6.82;;;6.10;;
8225;SDS011;4154;48.810;9.012;2023-09-08T13:12:32;7.40;;;6.57;;
8225;SDS011;4154;48.810;9.012;2023-09-08T13:14:59;7.60;;;6.78;;
8225;SDS011;4154;48.810;9.012;2023-09-08T13:17:24;7.18;;;6.57;;
8225;SDS011;4154;48.810;9.012;2023-09-08T13:19:50;6.97;;;6.32;;
8225;SDS011;4154;48.810;9.012;2023-09-08T13:22:16;8.27;;;6.38;;
8225;SDS011;4154;48.810;9.012;2023-09-08T13:24:42;6.65;;;6.07;;
8225;SDS011;4154;48.810;9.012;2023-09-08T13:27:08;8.75;;;6.65;;
8225;SDS011;4154;48.810;9.012;2023-09-08T13:29:34;7.43;;;6.65;;
8225;SDS011;4154;48.810;9.012;2023-09-08T13:32:00;9.27;;;7.20;;
8225;SDS011;4154;48.810;9.012;2023-09-08T13:34:27;7.18;;;6.47;;
8225;SDS011;4154;48.810;9.012;2023-09-08T13:36:53;6.95;;;6.20;;
8225;SDS011;4154;48.810;9.012;2023-09-08T13:39:18;8.25;;;6.40;;
8225;SDS011;4154;48.810;9.012;2023-09-08T13:44:15;7.43;;;6.70;;
8225;SDS011;4154;48.810;9.012;2023-09-08T13:46:42;6.90;;;6.22;;
8225;SDS011;4154;48.810;9.012;2023-09-08T13:49:08;6.72;;;6.13;;
8225;SDS011;4154;48.810;9.012;2023-09-08T13:51:34;7.03;;;6.32;;
8225;SDS011;4154;48.810;9.012;2023-09-08T13:54:01;7.03;;;6.32;;
8225;SDS011;4154;48.810;9.012;2023-09-08T13:56:27;9.63;;;6.38;;
8225;SDS011;4154;48.810;9.012;2023-09-08T13:58:52;8.45;;;6.38;;
8225;SDS011;4154;48.810;9.012;2023-09-08T14:01:18;7.13;;;6.15;;
8225;SDS011;4154;48.810;9.012;2023-09-08T14:03:44;8.85;;;6.28;;
8225;SDS011;4154;48.810;9.012;2023-09-08T14:06:10;7.03;;;6.30;;
8225;SDS011;4154;48.810;9.012;2023-09-08T14:08:36;6.45;;;5.88;;
8225;SDS011;4154;48.810;9.012;2023-09-08T14:11:02;6.70;;;6.10;;
8225;SDS011;4154;48.810;9.012;2023-09-08T14:13:28;7.20;;;6.03;;
8225;SDS011;4154;48.810;9.012;2023-09-08T14:15:54;6.78;;;6.20;;
8225;SDS011;4154;48.810;9.012;2023-09-08T14:18:19;7.18;;;6.43;;
8225;SDS011;4154;48.810;9.012;2023-09-08T14:20:45;7.00;;;6.40;;
8225;SDS011;4154;48.810;9.012;2023-09-08T14:23:11;6.75;;;6.15;;
8225;SDS011;4154;48.810;9.012;2023-09-08T14:25:37;8.07;;;6.13;;
8225;SDS011;4154;48.810;9.012;2023-09-08T14:28:02;7.53;;;6.05;;
8225;SDS011;4154;48.810;9.012;2023-09-08T14:30:29;6.63;;;6.13;;
8225;SDS011;4154;48.810;9.012;2023-09-08T14:32:55;7.63;;;5.70;;
8225;SDS011;4154;48.810;9.012;2023-09-08T14:35:21;6.78;;;5.90;;
8225;SDS011;4154;48.810;9.012;2023-09-08T14:37:47;7.80;;;6.22;;
8225;SDS011;4154;48.810;9.012;2023-09-08T14:40:13;6.57;;;6.00;;
8225;SDS011;4154;48.810;9.012;2023-09-08T14:42:40;6.70;;;6.10;;
8225;SDS011;4154;48.810;9.012;2023-09-08T14:45:05;6.93;;;6.32;;
8225;SDS011;4154;48.810;9.012;2023-09-08T14:47:32;6.10;;;5.50;;
8225;SDS011;4154;48.810;9.012;2023-09-08T14:49:59;6.50;;;5.90;;
8225;SDS011;4154;48.810;9.012;2023-09-08T14:52:25;6.75;;;6.15;;
8225;SDS011;4154;48.810;9.012;2023-09-08T14:54:51;6.53;;;5.80;;
8225;SDS011;4154;48.810;9.012;2023-09-08T14:57:17;6.10;;;5.60;;
8225;SDS011;4154;48.810;9.012;2023-09-08T14:59:43;6.65;;;5.68;;
8225;SDS011;4154;48.810;9.012;2023-09-08T15:02:09;6.05;;;5.45;;
8225;SDS011;4154;48.810;9.012;2023-09-08T15:04:35;6.32;;;5.75;;
8225;SDS011;4154;48.810;9.012;2023-09-08T15:07:02;6.18;;;5.70;;
8225;SDS011;4154;48.810;9.012;2023-09-08T15:09:28;6.45;;;5.85;;
8225;SDS011;4154;48.810;9.012;2023-09-08T15:11:54;6.10;;;5.50;;
8225;SDS011;4154;48.810;9.012;2023-09-08T15:14:20;6.15;;;5.65;;
8225;SDS011;4154;48.810;9.012;2023-09-08T15:16:45;6.50;;;5.68;;
8225;SDS011;4154;48.810;9.012;2023-09-08T15:19:11;8.02;;;5.93;;
8225;SDS011;4154;48.810;9.012;2023-09-08T15:21:36;6.38;;;5.78;;
8225;SDS011;4154;48.810;9.012;2023-09-08T15:24:03;6.18;;;5.63;;
8225;SDS011;4154;48.810;9.012;2023-09-08T15:26:30;6.28;;;5.78;;
8225;SDS011;4154;48.810;9.012;2023-09-08T15:28:55;6.25;;;5.75;;
8225;SDS011;4154;48.810;9.012;2023-09-08T15:31:24;7.22;;;5.75;;
8225;SDS011;4154;48.810;9.012;2023-09-08T15:33:50;5.70;;;5.18;;
8225;SDS011;4154;48.810;9.012;2023-09-08T15:36:16;6.65;;;5.95;;